createdAt,value
2023-03-18T00:00:40.137Z,100490.00
2023-03-18T00:03:10.727Z,100486.00
2023-03-18T00:05:41.139Z,100489.00
2023-03-18T00:08:11.123Z,100488.00
2023-03-18T00:10:43.972Z,100486.00
2023-03-18T00:13:13.845Z,100482.00
2023-03-18T00:15:43.843Z,100497.00
2023-03-18T00:18:14.252Z,100491.00
2023-03-18T00:20:45.399Z,100488.00
2023-03-18T00:23:16.632Z,100492.00
2023-03-18T00:25:50.812Z,100494.00
2023-03-18T00:28:20.785Z,100488.00
2023-03-18T00:30:51.621Z,100495.00
2023-03-18T00:33:22.299Z,100496.00
2023-03-18T00:35:53.249Z,100482.00
2023-03-18T00:38:24.586Z,100483.00
2023-03-18T00:41:01.688Z,100485.00
2023-03-18T00:43:36.028Z,100486.00
2023-03-18T00:46:06.702Z,100479.00
2023-03-18T00:48:36.678Z,100473.00
2023-03-18T00:51:07.145Z,100473.00
2023-03-18T00:53:37.087Z,100472.00
2023-03-18T00:56:10.176Z,100469.00
2023-03-18T00:58:41.047Z,100468.00
2023-03-18T01:01:13.789Z,100474.00
2023-03-18T01:03:45.245Z,100477.00
2023-03-18T01:06:17.769Z,100469.00
2023-03-18T01:08:47.957Z,100481.00
2023-03-18T01:11:21.374Z,100476.00
2023-03-18T01:13:51.478Z,100481.00
2023-03-18T01:16:22.450Z,100460.00
2023-03-18T01:18:53.855Z,100478.00
2023-03-18T01:21:24.340Z,100476.00
2023-03-18T01:23:54.471Z,100480.00
2023-03-18T01:26:27.179Z,100471.00
2023-03-18T01:28:57.123Z,100475.00
2023-03-18T01:31:27.179Z,100463.00
2023-03-18T01:33:57.216Z,100465.00
2023-03-18T01:36:28.386Z,100454.00
2023-03-18T01:38:58.477Z,100461.00
2023-03-18T01:41:31.311Z,100460.00
2023-03-18T01:44:02.231Z,100455.00
2023-03-18T01:46:40.590Z,100445.00
2023-03-18T01:49:19.104Z,100453.00
2023-03-18T01:51:54.339Z,100464.00
2023-03-18T01:54:26.401Z,100450.00
2023-03-18T01:56:59.834Z,100464.00
2023-03-18T01:59:32.963Z,100455.00
2023-03-18T02:02:07.309Z,100447.00
2023-03-18T02:04:42.354Z,100460.00
2023-03-18T02:07:18.916Z,100437.00
2023-03-18T02:09:54.034Z,100433.00
2023-03-18T02:12:30.207Z,100453.00
2023-03-18T02:15:01.364Z,100447.00
2023-03-18T02:17:34.972Z,100456.00
2023-03-18T02:20:18.801Z,100454.00
2023-03-18T02:22:54.821Z,100456.00
2023-03-18T02:25:44.717Z,100454.00
2023-03-18T02:28:21.550Z,100447.00
2023-03-18T02:30:55.923Z,100450.00
2023-03-18T02:33:29.721Z,100458.00
2023-03-18T02:36:06.778Z,100445.00
2023-03-18T02:38:36.842Z,100449.00
2023-03-18T02:41:07.260Z,100454.00
2023-03-18T02:43:39.791Z,100448.00
2023-03-18T02:46:25.783Z,100455.00
2023-03-18T02:48:56.679Z,100439.00
2023-03-18T02:51:26.730Z,100444.00
2023-03-18T02:54:01.282Z,100444.00
2023-03-18T02:56:31.380Z,100446.00
2023-03-18T02:59:04.264Z,100442.00
2023-03-18T03:01:35.692Z,100444.00
2023-03-18T03:04:08.133Z,100439.00
2023-03-18T03:06:39.108Z,100443.00
2023-03-18T03:09:12.032Z,100447.00
2023-03-18T03:11:42.400Z,100429.00
2023-03-18T03:14:16.408Z,100427.00
2023-03-18T03:16:46.728Z,100435.00
2023-03-18T03:19:16.993Z,100434.00
2023-03-18T03:21:46.919Z,100431.00
2023-03-18T03:24:16.886Z,100424.00
2023-03-18T03:26:46.857Z,100438.00
2023-03-18T03:29:19.476Z,100434.00
2023-03-18T03:31:49.446Z,100442.00
2023-03-18T03:34:19.734Z,100446.00
2023-03-18T03:36:50.000Z,100438.00
2023-03-18T03:39:20.257Z,100442.00
2023-03-18T03:41:50.330Z,100450.00
2023-03-18T03:44:22.892Z,100448.00
2023-03-18T03:46:53.146Z,100457.00
2023-03-18T03:49:23.179Z,100455.00
2023-03-18T03:51:53.070Z,100467.00
2023-03-18T03:54:23.556Z,100462.00
2023-03-18T03:56:53.431Z,100458.00
2023-03-18T03:59:26.094Z,100453.00
2023-03-18T04:01:56.238Z,100457.00
2023-03-18T04:04:26.325Z,100454.00
2023-03-18T04:06:56.285Z,100444.00
2023-03-18T04:09:26.432Z,100452.00
2023-03-18T04:11:57.068Z,100451.00
2023-03-18T04:14:29.801Z,100452.00
2023-03-18T04:17:00.631Z,100463.00
2023-03-18T04:19:31.300Z,100450.00
2023-03-18T04:22:01.504Z,100451.00
2023-03-18T04:24:31.755Z,100467.00
2023-03-18T04:27:02.018Z,100455.00
2023-03-18T04:29:34.662Z,100461.00
2023-03-18T04:32:04.673Z,100463.00
2023-03-18T04:34:34.762Z,100455.00
2023-03-18T04:37:04.719Z,100472.00
2023-03-18T04:39:35.130Z,100478.00
2023-03-18T04:42:05.202Z,100470.00
2023-03-18T04:44:37.781Z,100483.00
2023-03-18T04:47:08.766Z,100470.00
2023-03-18T04:49:39.967Z,100476.00
2023-03-18T04:52:10.433Z,100476.00
2023-03-18T04:54:40.350Z,100474.00
2023-03-18T04:57:11.199Z,100480.00
2023-03-18T04:59:43.638Z,100474.00
2023-03-18T05:02:14.507Z,100481.00
2023-03-18T05:04:44.525Z,100480.00
2023-03-18T05:07:17.358Z,100481.00
2023-03-18T05:09:47.710Z,100477.00
2023-03-18T05:12:18.903Z,100484.00
2023-03-18T05:14:51.447Z,100488.00
2023-03-18T05:17:21.873Z,100479.00
2023-03-18T05:19:52.250Z,100484.00
2023-03-18T05:22:23.767Z,100479.00
2023-03-18T05:24:54.115Z,100478.00
2023-03-18T05:27:24.410Z,100479.00
2023-03-18T05:29:57.527Z,100489.00
2023-03-18T05:32:27.967Z,100481.00
2023-03-18T05:34:58.140Z,100481.00
2023-03-18T05:37:28.315Z,100482.00
2023-03-18T05:39:58.719Z,100479.00
2023-03-18T05:42:28.929Z,100480.00
2023-03-18T05:45:02.373Z,100484.00
2023-03-18T05:47:33.117Z,100479.00
2023-03-18T05:50:03.892Z,100483.00
2023-03-18T05:52:34.005Z,100485.00
2023-03-18T05:55:04.482Z,100487.00
2023-03-18T05:57:34.660Z,100487.00
2023-03-18T06:00:08.927Z,100485.00
2023-03-18T06:02:39.175Z,100497.00
2023-03-18T06:05:11.042Z,100499.00
2023-03-18T06:07:41.398Z,100493.00
2023-03-18T06:10:13.546Z,100501.00
2023-03-18T06:12:44.652Z,100491.00
2023-03-18T06:15:17.638Z,100495.00
2023-03-18T06:17:48.045Z,100490.00
2023-03-18T06:20:19.753Z,100495.00
2023-03-18T06:22:51.879Z,100499.00
2023-03-18T06:25:24.263Z,100492.00
2023-03-18T06:27:54.699Z,100498.00
2023-03-18T06:30:27.887Z,100500.00
2023-03-18T06:32:58.374Z,100504.00
2023-03-18T06:35:31.670Z,100492.00
2023-03-18T06:38:02.866Z,100498.00
2023-03-18T06:40:33.051Z,100504.00
2023-03-18T06:43:03.346Z,100513.00
2023-03-18T06:45:35.901Z,100505.00
2023-03-18T06:48:06.957Z,100508.00
2023-03-18T06:50:37.318Z,100514.00
2023-03-18T06:53:07.464Z,100520.00
2023-03-18T06:55:38.074Z,100520.00
2023-03-18T06:58:09.125Z,100523.00
2023-03-18T07:00:43.135Z,100524.00
2023-03-18T07:03:15.656Z,100525.00
2023-03-18T07:05:45.802Z,100533.00
2023-03-18T07:08:16.804Z,100531.00
2023-03-18T07:10:47.285Z,100530.00
2023-03-18T07:13:17.496Z,100542.00
2023-03-18T07:15:51.006Z,100539.00
2023-03-18T07:18:21.755Z,100537.00
2023-03-18T07:20:52.624Z,100534.00
2023-03-18T07:23:22.803Z,100536.00
2023-03-18T07:25:52.933Z,100551.00
2023-03-18T07:28:23.110Z,100547.00
2023-03-18T07:30:55.768Z,100545.00
2023-03-18T07:33:26.031Z,100554.00
2023-03-18T07:35:56.981Z,100560.00
2023-03-18T07:38:27.229Z,100559.00
2023-03-18T07:40:58.081Z,100556.00
2023-03-18T07:43:28.626Z,100562.00
2023-03-18T07:46:01.525Z,100563.00
2023-03-18T07:48:31.745Z,100560.00
2023-03-18T07:51:02.130Z,100555.00
2023-03-18T07:53:32.407Z,100554.00
2023-03-18T07:56:03.637Z,100566.00
2023-03-18T07:58:34.289Z,100562.00
2023-03-18T08:01:07.819Z,100561.00
2023-03-18T08:03:38.014Z,100577.00
2023-03-18T08:06:08.975Z,100573.00
2023-03-18T08:08:39.327Z,100573.00
2023-03-18T08:11:10.023Z,100571.00
2023-03-18T08:13:40.430Z,100581.00
2023-03-18T08:16:13.744Z,100592.00
2023-03-18T08:18:44.532Z,100583.00
2023-03-18T08:21:14.821Z,100593.00
2023-03-18T08:23:44.890Z,100597.00
2023-03-18T08:26:15.365Z,100596.00
2023-03-18T08:28:45.575Z,100594.00
2023-03-18T08:31:18.901Z,100586.00
2023-03-18T08:33:49.591Z,100598.00
2023-03-18T08:36:19.730Z,100599.00
2023-03-18T08:38:49.980Z,100583.00
2023-03-18T08:41:20.760Z,100597.00
2023-03-18T08:43:52.525Z,100599.00
2023-03-18T08:46:25.351Z,100614.00
2023-03-18T08:48:55.872Z,100609.00
2023-03-18T08:51:26.929Z,100618.00
2023-03-18T08:53:56.983Z,100619.00
2023-03-18T08:56:27.314Z,100623.00
2023-03-18T08:58:57.381Z,100619.00
2023-03-18T09:01:30.414Z,100613.00
2023-03-18T09:04:00.447Z,100612.00
2023-03-18T09:06:32.924Z,100610.00
2023-03-18T09:09:02.910Z,100616.00
2023-03-18T09:11:33.794Z,100622.00
2023-03-18T09:14:04.496Z,100623.00
2023-03-18T09:16:37.795Z,100618.00
2023-03-18T09:19:07.730Z,100622.00
2023-03-18T09:21:37.722Z,100610.00
2023-03-18T09:24:07.906Z,100616.00
2023-03-18T09:26:39.352Z,100622.00
2023-03-18T09:29:09.410Z,100623.00
2023-03-18T09:31:41.883Z,100625.00
2023-03-18T09:34:13.528Z,100631.00
2023-03-18T09:36:50.911Z,100626.00
2023-03-18T09:39:21.342Z,100627.00
2023-03-18T09:42:08.165Z,100630.00
2023-03-18T09:44:39.825Z,100643.00
2023-03-18T09:47:43.500Z,100634.00
2023-03-18T09:50:34.967Z,100628.00
2023-03-18T09:53:16.956Z,100632.00
2023-03-18T09:55:50.867Z,100635.00
2023-03-18T09:58:27.546Z,100633.00
2023-03-18T10:01:03.785Z,100638.00
2023-03-18T10:03:42.686Z,100641.00
2023-03-18T10:06:21.122Z,100649.00
2023-03-18T10:09:03.013Z,100644.00
2023-03-18T10:11:37.611Z,100643.00
2023-03-18T10:14:22.758Z,100631.00
2023-03-18T10:17:09.439Z,100635.00
2023-03-18T10:19:48.258Z,100636.00
2023-03-18T10:22:46.021Z,100643.00
2023-03-18T10:25:25.895Z,100640.00
2023-03-18T10:28:27.695Z,100639.00
2023-03-18T10:31:08.480Z,100650.00
2023-03-18T10:33:48.345Z,100645.00
2023-03-18T10:36:28.421Z,100647.00
2023-03-18T10:38:59.702Z,100648.00
2023-03-18T10:41:35.359Z,100642.00
2023-03-18T10:44:10.163Z,100640.00
2023-03-18T10:46:41.196Z,100648.00
2023-03-18T10:49:19.127Z,100638.00
2023-03-18T10:51:58.066Z,100647.00
2023-03-18T10:54:32.602Z,100640.00
2023-03-18T10:57:02.526Z,100639.00
2023-03-18T10:59:33.657Z,100638.00
2023-03-18T11:02:08.105Z,100626.00
2023-03-18T11:04:48.623Z,100636.00
2023-03-18T11:07:26.033Z,100636.00
2023-03-18T11:09:56.641Z,100640.00
2023-03-18T11:12:29.804Z,100636.00
2023-03-18T11:14:59.678Z,100639.00
2023-03-18T11:17:35.410Z,100647.00
2023-03-18T11:20:11.539Z,100634.00
2023-03-18T11:22:48.673Z,100631.00
2023-03-18T11:25:24.177Z,100638.00
2023-03-18T11:27:57.482Z,100630.00
2023-03-18T11:30:34.854Z,100630.00
2023-03-18T11:33:17.540Z,100630.00
2023-03-18T11:35:51.870Z,100631.00
2023-03-18T11:38:30.197Z,100628.00
2023-03-18T11:41:11.072Z,100621.00
2023-03-18T11:43:41.599Z,100619.00
2023-03-18T11:46:13.969Z,100629.00
2023-03-18T11:48:46.727Z,100628.00
2023-03-18T11:51:41.697Z,100629.00
2023-03-18T11:54:56.588Z,100628.00
2023-03-18T11:57:34.014Z,100633.00
2023-03-18T12:00:25.468Z,100636.00
2023-03-18T12:03:28.026Z,100632.00
2023-03-18T12:06:08.255Z,100632.00
2023-03-18T12:08:54.406Z,100642.00
2023-03-18T12:11:43.199Z,100642.00
2023-03-18T12:14:26.155Z,100637.00
2023-03-18T12:17:13.739Z,100638.00
2023-03-18T12:20:12.923Z,100635.00
2023-03-18T12:23:05.035Z,100635.00
2023-03-18T12:25:52.805Z,100645.00
2023-03-18T12:28:36.356Z,100638.00
2023-03-18T12:31:43.410Z,100632.00
2023-03-18T12:34:28.715Z,100631.00
2023-03-18T12:37:19.317Z,100646.00
2023-03-18T12:40:27.502Z,100634.00
2023-03-18T12:43:57.595Z,100620.00
2023-03-18T12:46:36.417Z,100627.00
2023-03-18T12:49:18.189Z,100627.00
2023-03-18T12:51:54.071Z,100630.00
2023-03-18T12:54:29.634Z,100632.00
2023-03-18T12:57:08.137Z,100638.00
2023-03-18T12:59:44.776Z,100634.00
2023-03-18T13:02:40.052Z,100638.00
2023-03-18T13:05:24.680Z,100636.00
2023-03-18T13:08:10.649Z,100626.00
2023-03-18T13:10:40.795Z,100633.00
2023-03-18T13:13:13.221Z,100624.00
2023-03-18T13:15:49.513Z,100629.00
2023-03-18T13:18:27.357Z,100620.00
2023-03-18T13:21:00.056Z,100627.00
2023-03-18T13:24:02.358Z,100624.00
2023-03-18T13:26:54.023Z,100628.00
2023-03-18T13:29:36.477Z,100625.00
2023-03-18T13:32:28.066Z,100628.00
2023-03-18T13:35:33.730Z,100618.00
2023-03-18T13:38:12.917Z,100622.00
2023-03-18T13:41:14.941Z,100610.00
2023-03-18T13:43:49.533Z,100610.00
2023-03-18T13:46:22.397Z,100611.00
2023-03-18T13:48:58.804Z,100609.00
2023-03-18T13:51:53.193Z,100610.00
2023-03-18T13:54:23.902Z,100617.00
2023-03-18T13:56:57.175Z,100617.00
2023-03-18T13:59:48.548Z,100620.00
2023-03-18T14:02:36.391Z,100613.00
2023-03-18T14:05:47.261Z,100608.00
2023-03-18T14:08:51.368Z,100614.00
2023-03-18T14:11:52.832Z,100610.00
2023-03-18T14:15:26.830Z,100615.00
2023-03-18T14:17:58.934Z,100610.00
2023-03-18T14:20:42.024Z,100615.00
2023-03-18T14:23:46.072Z,100613.00
2023-03-18T14:26:26.649Z,100610.00
2023-03-18T14:29:18.400Z,100613.00
2023-03-18T14:32:08.435Z,100610.00
2023-03-18T14:34:56.489Z,100605.00
2023-03-18T14:37:32.748Z,100603.00
2023-03-18T14:40:11.551Z,100607.00
2023-03-18T14:42:54.250Z,100605.00
2023-03-18T14:45:29.271Z,100597.00
2023-03-18T14:48:01.653Z,100597.00
2023-03-18T14:50:39.412Z,100590.00
2023-03-18T14:53:18.168Z,100602.00
2023-03-18T14:55:55.148Z,100592.00
2023-03-18T14:58:28.418Z,100594.00
2023-03-18T15:01:11.492Z,100596.00
2023-03-18T15:03:44.890Z,100594.00
2023-03-18T15:06:21.965Z,100590.00
2023-03-18T15:08:55.175Z,100594.00
2023-03-18T15:11:28.260Z,100593.00
2023-03-18T15:14:00.486Z,100589.00
2023-03-18T15:16:33.593Z,100586.00
2023-03-18T15:19:03.677Z,100593.00
2023-03-18T15:21:35.875Z,100583.00
2023-03-18T15:24:10.682Z,100590.00
2023-03-18T15:26:44.654Z,100593.00
2023-03-18T15:29:31.541Z,100590.00
2023-03-18T15:32:11.815Z,100594.00
2023-03-18T15:34:44.031Z,100590.00
2023-03-18T15:37:40.816Z,100582.00
2023-03-18T15:40:35.350Z,100587.00
2023-03-18T15:43:24.563Z,100587.00
2023-03-18T15:45:59.830Z,100592.00
2023-03-18T15:48:37.895Z,100591.00
2023-03-18T15:51:11.267Z,100592.00
2023-03-18T15:53:47.964Z,100597.00
2023-03-18T15:56:22.817Z,100607.00
2023-03-18T15:59:09.449Z,100605.00
2023-03-18T16:01:40.329Z,100611.00
2023-03-18T16:04:13.884Z,100611.00
2023-03-18T16:06:44.176Z,100620.00
2023-03-18T16:09:19.099Z,100618.00
2023-03-18T16:11:52.749Z,100624.00
2023-03-18T16:14:29.688Z,100632.00
2023-03-18T16:16:59.634Z,100629.00
2023-03-18T16:19:32.544Z,100627.00
2023-03-18T16:22:03.041Z,100631.00
2023-03-18T16:24:32.979Z,100627.00
2023-03-18T16:27:03.053Z,100637.00
2023-03-18T16:29:39.918Z,100636.00
2023-03-18T16:32:20.816Z,100648.00
2023-03-18T16:34:51.173Z,100638.00
2023-03-18T16:37:26.713Z,100644.00
2023-03-18T16:39:58.135Z,100639.00
2023-03-18T16:42:28.467Z,100646.00
2023-03-18T16:45:01.657Z,100639.00
2023-03-18T16:47:32.183Z,100646.00
2023-03-18T16:50:05.459Z,100641.00
2023-03-18T16:52:35.609Z,100644.00
2023-03-18T16:55:05.788Z,100644.00
2023-03-18T16:57:36.399Z,100651.00
2023-03-18T17:00:22.298Z,100661.00
2023-03-18T17:02:53.817Z,100656.00
2023-03-18T17:05:25.549Z,100662.00
2023-03-18T17:07:55.414Z,100664.00
2023-03-18T17:10:28.881Z,100664.00
2023-03-18T17:13:06.056Z,100671.00
2023-03-18T17:15:42.942Z,100669.00
2023-03-18T17:18:19.325Z,100665.00
2023-03-18T17:20:50.391Z,100669.00
2023-03-18T17:23:23.252Z,100672.00
2023-03-18T17:25:57.011Z,100673.00
2023-03-18T17:28:35.825Z,100681.00
2023-03-18T17:31:09.270Z,100676.00
2023-03-18T17:33:39.230Z,100682.00
2023-03-18T17:36:11.270Z,100689.00
2023-03-18T17:38:42.007Z,100695.00
2023-03-18T17:41:21.113Z,100698.00
2023-03-18T17:43:52.435Z,100699.00
2023-03-18T17:46:25.397Z,100700.00
2023-03-18T17:48:55.658Z,100699.00
2023-03-18T17:51:27.529Z,100692.00
2023-03-18T17:54:05.008Z,100697.00
2023-03-18T17:56:36.224Z,100700.00
2023-03-18T17:59:10.577Z,100699.00
2023-03-18T18:01:43.176Z,100697.00
2023-03-18T18:04:18.837Z,100695.00
2023-03-18T18:06:50.203Z,100697.00
2023-03-18T18:09:23.242Z,100702.00
2023-03-18T18:11:53.663Z,100698.00
2023-03-18T18:14:29.038Z,100700.00
2023-03-18T18:17:01.970Z,100695.00
2023-03-18T18:19:33.869Z,100690.00
2023-03-18T18:22:04.657Z,100700.00
2023-03-18T18:24:35.948Z,100701.00
2023-03-18T18:27:06.182Z,100695.00
2023-03-18T18:29:36.610Z,100695.00
2023-03-18T18:32:09.710Z,100689.00
2023-03-18T18:34:40.063Z,100703.00
2023-03-18T18:37:10.464Z,100704.00
2023-03-18T18:39:41.328Z,100701.00
2023-03-18T18:42:12.467Z,100693.00
2023-03-18T18:44:43.423Z,100710.00
2023-03-18T18:47:23.549Z,100709.00
2023-03-18T18:49:54.148Z,100709.00
2023-03-18T18:52:24.399Z,100706.00
2023-03-18T18:54:54.652Z,100702.00
2023-03-18T18:57:29.366Z,100709.00
2023-03-18T18:59:59.749Z,100707.00
2023-03-18T19:02:38.513Z,100718.00
2023-03-18T19:05:10.797Z,100710.00
2023-03-18T19:07:41.864Z,100715.00
2023-03-18T19:10:16.168Z,100715.00
2023-03-18T19:12:47.397Z,100712.00
2023-03-18T19:15:19.785Z,100711.00
2023-03-18T19:17:53.140Z,100711.00
2023-03-18T19:20:32.615Z,100712.00
2023-03-18T19:23:03.336Z,100712.00
2023-03-18T19:25:34.271Z,100714.00
2023-03-18T19:28:04.716Z,100706.00
2023-03-18T19:30:34.909Z,100706.00
2023-03-18T19:33:17.636Z,100711.00
2023-03-18T19:35:48.374Z,100715.00
2023-03-18T19:38:24.304Z,100714.00
2023-03-18T19:40:55.373Z,100726.00
2023-03-18T19:43:25.556Z,100722.00
2023-03-18T19:45:55.863Z,100720.00
2023-03-18T19:48:30.116Z,100712.00
2023-03-18T19:51:00.320Z,100719.00
2023-03-18T19:53:30.775Z,100720.00
2023-03-18T19:56:01.508Z,100726.00
2023-03-18T19:58:31.700Z,100728.00
2023-03-18T20:01:04.267Z,100736.00
2023-03-18T20:03:37.341Z,100728.00
2023-03-18T20:06:08.142Z,100734.00
2023-03-18T20:08:38.353Z,100731.00
2023-03-18T20:11:09.016Z,100745.00
2023-03-18T20:13:39.191Z,100730.00
2023-03-18T20:16:11.916Z,100740.00
2023-03-18T20:18:45.113Z,100742.00
2023-03-18T20:21:24.408Z,100751.00
2023-03-18T20:23:55.183Z,100754.00
2023-03-18T20:26:25.591Z,100752.00
2023-03-18T20:28:56.290Z,100752.00
2023-03-18T20:31:26.792Z,100744.00
2023-03-18T20:33:59.773Z,100756.00
2023-03-18T20:36:30.055Z,100763.00
2023-03-18T20:39:00.284Z,100752.00
2023-03-18T20:41:30.627Z,100754.00
2023-03-18T20:44:00.945Z,100758.00
2023-03-18T20:46:32.158Z,100764.00
2023-03-18T20:49:04.860Z,100762.00
2023-03-18T20:51:40.927Z,100761.00
2023-03-18T20:54:20.478Z,100763.00
2023-03-18T20:56:50.647Z,100756.00
2023-03-18T20:59:20.970Z,100760.00
2023-03-18T21:01:51.463Z,100758.00
2023-03-18T21:04:24.259Z,100759.00
2023-03-18T21:06:54.410Z,100766.00
2023-03-18T21:09:24.574Z,100757.00
2023-03-18T21:11:55.353Z,100762.00
2023-03-18T21:14:26.000Z,100755.00
2023-03-18T21:16:57.216Z,100756.00
2023-03-18T21:19:30.059Z,100756.00
2023-03-18T21:22:00.433Z,100762.00
2023-03-18T21:24:31.863Z,100752.00
2023-03-18T21:27:05.090Z,100756.00
2023-03-18T21:29:36.017Z,100764.00
2023-03-18T21:32:06.512Z,100757.00
2023-03-18T21:34:39.556Z,100758.00
2023-03-18T21:37:17.041Z,100756.00
2023-03-18T21:39:47.985Z,100747.00
2023-03-18T21:42:26.243Z,100751.00
2023-03-18T21:44:57.044Z,100755.00
2023-03-18T21:47:29.019Z,100753.00
2023-03-18T21:50:02.112Z,100752.00
2023-03-18T21:52:36.176Z,100759.00
2023-03-18T21:55:09.555Z,100752.00
2023-03-18T21:57:40.013Z,100744.00
2023-03-18T22:00:13.178Z,100751.00
2023-03-18T22:02:43.309Z,100745.00
2023-03-18T22:05:20.004Z,100766.00
2023-03-18T22:07:50.586Z,100755.00
2023-03-18T22:10:24.150Z,100756.00
2023-03-18T22:12:54.373Z,100764.00
2023-03-18T22:15:38.644Z,100764.00
2023-03-18T22:18:09.923Z,100768.00
2023-03-18T22:20:42.844Z,100762.00
2023-03-18T22:23:19.943Z,100765.00
2023-03-18T22:25:52.497Z,100765.00
2023-03-18T22:28:23.046Z,100765.00
2023-03-18T22:30:55.931Z,100764.00
2023-03-18T22:33:30.053Z,100765.00
2023-03-18T22:36:02.885Z,100769.00
2023-03-18T22:38:32.917Z,100763.00
2023-03-18T22:41:02.966Z,100756.00
2023-03-18T22:43:36.009Z,100764.00
2023-03-18T22:46:11.478Z,100762.00
2023-03-18T22:48:41.824Z,100767.00
2023-03-18T22:51:24.251Z,100770.00
2023-03-18T22:53:56.864Z,100773.00
2023-03-18T22:56:27.152Z,100767.00
2023-03-18T22:58:57.353Z,100764.00
2023-03-18T23:01:32.851Z,100769.00
2023-03-18T23:04:02.978Z,100762.00
2023-03-18T23:06:35.905Z,100767.00
2023-03-18T23:09:06.370Z,100762.00
2023-03-18T23:11:37.975Z,100754.00
2023-03-18T23:14:09.404Z,100764.00
2023-03-18T23:16:39.593Z,100767.00
2023-03-18T23:19:09.740Z,100765.00
2023-03-18T23:21:43.767Z,100767.00
2023-03-18T23:24:15.525Z,100769.00
2023-03-18T23:26:45.658Z,100771.00
2023-03-18T23:29:15.529Z,100768.00
2023-03-18T23:31:45.556Z,100771.00
2023-03-18T23:34:15.580Z,100777.00
2023-03-18T23:36:48.166Z,100776.00
2023-03-18T23:39:18.164Z,100775.00
2023-03-18T23:41:48.104Z,100773.00
2023-03-18T23:44:18.029Z,100768.00
2023-03-18T23:46:49.044Z,100759.00
2023-03-18T23:49:19.061Z,100757.00
2023-03-18T23:51:51.763Z,100757.00
2023-03-18T23:54:21.882Z,100762.00
2023-03-18T23:56:51.760Z,100770.00
2023-03-18T23:59:21.794Z,100770.00
